sensor_id;sensor_type;location;lat;lon;timestamp;P1;durP1;ratioP1;P2;durP2;ratioP2
78169;SDS011;67412;49.892;14.490;2024-01-30T00:01:06;18.27;;;6.80;;
78169;SDS011;67412;49.892;14.490;2024-01-30T00:03:31;21.90;;;7.50;;
78169;SDS011;67412;49.892;14.490;2024-01-30T00:05:56;17.27;;;5.72;;
78169;SDS011;67412;49.892;14.490;2024-01-30T00:08:22;16.35;;;6.18;;
78169;SDS011;67412;49.892;14.490;2024-01-30T00:10:47;17.55;;;6.15;;
78169;SDS011;67412;49.892;14.490;2024-01-30T00:13:12;19.30;;;7.43;;
78169;SDS011;67412;49.892;14.490;2024-01-30T00:15:39;15.93;;;5.25;;
78169;SDS011;67412;49.892;14.490;2024-01-30T00:18:04;15.63;;;6.15;;
78169;SDS011;67412;49.892;14.490;2024-01-30T00:20:29;16.60;;;6.22;;
78169;SDS011;67412;49.892;14.490;2024-01-30T00:22:55;19.55;;;6.35;;
78169;SDS011;67412;49.892;14.490;2024-01-30T00:25:20;19.60;;;7.43;;
78169;SDS011;67412;49.892;14.490;2024-01-30T00:27:45;19.30;;;6.88;;
78169;SDS011;67412;49.892;14.490;2024-01-30T00:30:11;21.83;;;7.40;;
78169;SDS011;67412;49.892;14.490;2024-01-30T00:32:37;16.70;;;7.20;;
78169;SDS011;67412;49.892;14.490;2024-01-30T00:35:02;18.75;;;6.60;;
78169;SDS011;67412;49.892;14.490;2024-01-30T00:37:27;17.67;;;7.32;;
78169;SDS011;67412;49.892;14.490;2024-01-30T00:39:53;18.67;;;6.97;;
78169;SDS011;67412;49.892;14.490;2024-01-30T00:42:18;16.52;;;5.78;;
78169;SDS011;67412;49.892;14.490;2024-01-30T00:44:44;17.73;;;6.65;;
78169;SDS011;67412;49.892;14.490;2024-01-30T00:47:09;17.33;;;7.38;;
78169;SDS011;67412;49.892;14.490;2024-01-30T00:49:35;18.42;;;7.68;;
78169;SDS011;67412;49.892;14.490;2024-01-30T00:52:01;17.38;;;6.78;;
78169;SDS011;67412;49.892;14.490;2024-01-30T00:54:26;18.90;;;7.15;;
78169;SDS011;67412;49.892;14.490;2024-01-30T00:56:51;20.23;;;6.85;;
78169;SDS011;67412;49.892;14.490;2024-01-30T00:59:17;18.75;;;7.53;;
78169;SDS011;67412;49.892;14.490;2024-01-30T01:01:42;19.55;;;7.25;;
78169;SDS011;67412;49.892;14.490;2024-01-30T01:04:07;18.02;;;6.75;;
78169;SDS011;67412;49.892;14.490;2024-01-30T01:06:33;21.45;;;7.13;;
78169;SDS011;67412;49.892;14.490;2024-01-30T01:08:58;19.73;;;7.82;;
78169;SDS011;67412;49.892;14.490;2024-01-30T01:11:23;18.55;;;7.18;;
78169;SDS011;67412;49.892;14.490;2024-01-30T01:13:49;19.08;;;7.13;;
78169;SDS011;67412;49.892;14.490;2024-01-30T01:16:14;18.80;;;6.95;;
78169;SDS011;67412;49.892;14.490;2024-01-30T01:18:39;20.73;;;6.97;;
78169;SDS011;67412;49.892;14.490;2024-01-30T01:21:05;20.83;;;7.88;;
78169;SDS011;67412;49.892;14.490;2024-01-30T01:23:30;20.15;;;7.55;;
78169;SDS011;67412;49.892;14.490;2024-01-30T01:25:56;20.73;;;8.07;;
78169;SDS011;67412;49.892;14.490;2024-01-30T01:28:21;17.42;;;7.30;;
78169;SDS011;67412;49.892;14.490;2024-01-30T01:30:47;20.83;;;7.28;;
78169;SDS011;67412;49.892;14.490;2024-01-30T01:33:12;20.42;;;7.05;;
78169;SDS011;67412;49.892;14.490;2024-01-30T01:35:39;21.83;;;7.88;;
78169;SDS011;67412;49.892;14.490;2024-01-30T01:38:05;20.95;;;7.35;;
78169;SDS011;67412;49.892;14.490;2024-01-30T01:40:30;19.90;;;7.65;;
78169;SDS011;67412;49.892;14.490;2024-01-30T01:42:56;18.42;;;7.15;;
78169;SDS011;67412;49.892;14.490;2024-01-30T01:45:21;25.42;;;8.30;;
78169;SDS011;67412;49.892;14.490;2024-01-30T01:47:47;20.25;;;7.80;;
78169;SDS011;67412;49.892;14.490;2024-01-30T01:50:16;18.05;;;6.95;;
78169;SDS011;67412;49.892;14.490;2024-01-30T01:52:47;22.42;;;8.18;;
78169;SDS011;67412;49.892;14.490;2024-01-30T01:55:13;25.63;;;7.03;;
78169;SDS011;67412;49.892;14.490;2024-01-30T01:57:41;17.75;;;6.70;;
78169;SDS011;67412;49.892;14.490;2024-01-30T02:00:07;21.92;;;7.60;;
78169;SDS011;67412;49.892;14.490;2024-01-30T02:02:35;21.40;;;8.20;;
78169;SDS011;67412;49.892;14.490;2024-01-30T02:05:01;19.55;;;7.43;;
78169;SDS011;67412;49.892;14.490;2024-01-30T02:07:27;20.88;;;7.32;;
78169;SDS011;67412;49.892;14.490;2024-01-30T02:09:53;18.80;;;8.10;;
78169;SDS011;67412;49.892;14.490;2024-01-30T02:12:19;22.38;;;7.53;;
78169;SDS011;67412;49.892;14.490;2024-01-30T02:14:45;18.90;;;7.15;;
78169;SDS011;67412;49.892;14.490;2024-01-30T02:17:14;18.83;;;6.53;;
78169;SDS011;67412;49.892;14.490;2024-01-30T02:19:40;18.52;;;7.15;;
78169;SDS011;67412;49.892;14.490;2024-01-30T02:22:06;21.27;;;7.53;;
78169;SDS011;67412;49.892;14.490;2024-01-30T02:24:32;24.25;;;8.48;;
78169;SDS011;67412;49.892;14.490;2024-01-30T02:26:58;20.15;;;8.50;;
78169;SDS011;67412;49.892;14.490;2024-01-30T02:29:23;21.83;;;7.78;;
78169;SDS011;67412;49.892;14.490;2024-01-30T02:31:49;19.05;;;7.88;;
78169;SDS011;67412;49.892;14.490;2024-01-30T02:34:14;19.85;;;7.32;;
78169;SDS011;67412;49.892;14.490;2024-01-30T02:36:43;19.02;;;7.80;;
78169;SDS011;67412;49.892;14.490;2024-01-30T02:39:08;20.48;;;7.07;;
78169;SDS011;67412;49.892;14.490;2024-01-30T02:41:34;20.45;;;8.05;;
78169;SDS011;67412;49.892;14.490;2024-01-30T02:44:00;20.35;;;8.50;;
78169;SDS011;67412;49.892;14.490;2024-01-30T02:46:25;16.58;;;6.95;;
78169;SDS011;67412;49.892;14.490;2024-01-30T02:48:50;22.65;;;7.78;;
78169;SDS011;67412;49.892;14.490;2024-01-30T02:51:16;21.15;;;8.20;;
78169;SDS011;67412;49.892;14.490;2024-01-30T02:53:42;20.52;;;7.15;;
78169;SDS011;67412;49.892;14.490;2024-01-30T02:56:07;24.23;;;8.43;;
78169;SDS011;67412;49.892;14.490;2024-01-30T03:01:00;23.00;;;7.72;;
78169;SDS011;67412;49.892;14.490;2024-01-30T03:03:25;18.70;;;6.82;;
78169;SDS011;67412;49.892;14.490;2024-01-30T03:05:50;22.95;;;8.00;;
78169;SDS011;67412;49.892;14.490;2024-01-30T03:08:16;28.65;;;8.68;;
78169;SDS011;67412;49.892;14.490;2024-01-30T03:10:41;17.83;;;7.10;;
78169;SDS011;67412;49.892;14.490;2024-01-30T03:13:06;25.52;;;8.95;;
78169;SDS011;67412;49.892;14.490;2024-01-30T03:15:32;22.27;;;7.07;;
78169;SDS011;67412;49.892;14.490;2024-01-30T03:17:57;18.92;;;6.80;;
78169;SDS011;67412;49.892;14.490;2024-01-30T03:20:22;20.15;;;8.02;;
78169;SDS011;67412;49.892;14.490;2024-01-30T03:22:48;21.40;;;8.20;;
78169;SDS011;67412;49.892;14.490;2024-01-30T03:25:13;22.33;;;8.85;;
78169;SDS011;67412;49.892;14.490;2024-01-30T03:27:38;24.63;;;9.27;;
78169;SDS011;67412;49.892;14.490;2024-01-30T03:30:04;22.58;;;7.90;;
78169;SDS011;67412;49.892;14.490;2024-01-30T03:32:30;26.52;;;8.77;;
78169;SDS011;67412;49.892;14.490;2024-01-30T03:34:55;20.77;;;8.15;;
78169;SDS011;67412;49.892;14.490;2024-01-30T03:37:20;22.52;;;7.72;;
78169;SDS011;67412;49.892;14.490;2024-01-30T03:39:46;22.15;;;7.35;;
78169;SDS011;67412;49.892;14.490;2024-01-30T03:42:11;22.13;;;7.45;;
78169;SDS011;67412;49.892;14.490;2024-01-30T03:44:36;24.27;;;8.40;;
78169;SDS011;67412;49.892;14.490;2024-01-30T03:47:02;20.50;;;8.00;;
78169;SDS011;67412;49.892;14.490;2024-01-30T03:49:27;22.52;;;7.65;;
78169;SDS011;67412;49.892;14.490;2024-01-30T03:51:52;19.80;;;7.32;;
78169;SDS011;67412;49.892;14.490;2024-01-30T03:54:18;24.55;;;8.30;;
78169;SDS011;67412;49.892;14.490;2024-01-30T03:56:43;22.63;;;8.48;;
78169;SDS011;67412;49.892;14.490;2024-01-30T03:59:08;21.45;;;8.25;;
78169;SDS011;67412;49.892;14.490;2024-01-30T04:01:34;20.98;;;8.60;;
78169;SDS011;67412;49.892;14.490;2024-01-30T04:03:59;20.08;;;8.00;;
78169;SDS011;67412;49.892;14.490;2024-01-30T04:06:24;22.05;;;8.13;;
78169;SDS011;67412;49.892;14.490;2024-01-30T04:08:50;22.58;;;8.30;;
78169;SDS011;67412;49.892;14.490;2024-01-30T04:11:17;19.10;;;7.40;;
78169;SDS011;67412;49.892;14.490;2024-01-30T04:13:43;22.77;;;8.15;;
78169;SDS011;67412;49.892;14.490;2024-01-30T04:16:18;23.45;;;7.95;;
78169;SDS011;67412;49.892;14.490;2024-01-30T04:18:45;20.98;;;7.43;;
78169;SDS011;67412;49.892;14.490;2024-01-30T04:21:10;21.83;;;7.38;;
78169;SDS011;67412;49.892;14.490;2024-01-30T04:23:36;22.75;;;8.10;;
78169;SDS011;67412;49.892;14.490;2024-01-30T04:26:01;21.05;;;8.20;;
78169;SDS011;67412;49.892;14.490;2024-01-30T04:28:26;23.42;;;8.32;;
78169;SDS011;67412;49.892;14.490;2024-01-30T04:30:52;23.45;;;8.60;;
78169;SDS011;67412;49.892;14.490;2024-01-30T04:33:17;19.33;;;7.80;;
78169;SDS011;67412;49.892;14.490;2024-01-30T04:35:43;20.35;;;8.48;;
78169;SDS011;67412;49.892;14.490;2024-01-30T04:38:08;21.92;;;8.45;;
78169;SDS011;67412;49.892;14.490;2024-01-30T04:40:34;26.52;;;8.98;;
78169;SDS011;67412;49.892;14.490;2024-01-30T04:42:59;23.75;;;7.63;;
78169;SDS011;67412;49.892;14.490;2024-01-30T04:45:24;20.25;;;7.50;;
78169;SDS011;67412;49.892;14.490;2024-01-30T04:47:50;22.83;;;7.68;;
78169;SDS011;67412;49.892;14.490;2024-01-30T04:50:15;21.95;;;8.27;;
78169;SDS011;67412;49.892;14.490;2024-01-30T04:52:40;20.42;;;8.57;;
78169;SDS011;67412;49.892;14.490;2024-01-30T04:55:06;23.88;;;8.48;;
78169;SDS011;67412;49.892;14.490;2024-01-30T04:57:32;24.65;;;8.05;;
78169;SDS011;67412;49.892;14.490;2024-01-30T04:59:58;22.00;;;8.68;;
78169;SDS011;67412;49.892;14.490;2024-01-30T05:02:24;24.63;;;9.02;;
78169;SDS011;67412;49.892;14.490;2024-01-30T05:04:49;22.80;;;9.30;;
78169;SDS011;67412;49.892;14.490;2024-01-30T05:07:14;24.05;;;8.45;;
78169;SDS011;67412;49.892;14.490;2024-01-30T05:09:40;27.63;;;9.57;;
78169;SDS011;67412;49.892;14.490;2024-01-30T05:12:05;26.90;;;9.07;;
78169;SDS011;67412;49.892;14.490;2024-01-30T05:14:32;27.15;;;8.68;;
78169;SDS011;67412;49.892;14.490;2024-01-30T05:16:57;28.17;;;10.13;;
78169;SDS011;67412;49.892;14.490;2024-01-30T05:19:22;27.73;;;8.23;;
78169;SDS011;67412;49.892;14.490;2024-01-30T05:21:48;24.27;;;9.32;;
78169;SDS011;67412;49.892;14.490;2024-01-30T05:24:14;26.45;;;9.27;;
78169;SDS011;67412;49.892;14.490;2024-01-30T05:26:39;24.83;;;8.57;;
78169;SDS011;67412;49.892;14.490;2024-01-30T05:29:05;22.20;;;9.48;;
78169;SDS011;67412;49.892;14.490;2024-01-30T05:31:31;25.90;;;9.27;;
78169;SDS011;67412;49.892;14.490;2024-01-30T05:33:57;26.23;;;9.05;;
78169;SDS011;67412;49.892;14.490;2024-01-30T05:36:22;32.08;;;10.48;;
78169;SDS011;67412;49.892;14.490;2024-01-30T05:38:47;25.08;;;9.82;;
78169;SDS011;67412;49.892;14.490;2024-01-30T05:41:13;24.40;;;10.10;;
78169;SDS011;67412;49.892;14.490;2024-01-30T05:43:38;26.05;;;10.40;;
78169;SDS011;67412;49.892;14.490;2024-01-30T05:46:04;32.88;;;11.27;;
78169;SDS011;67412;49.892;14.490;2024-01-30T05:48:29;38.10;;;11.55;;
78169;SDS011;67412;49.892;14.490;2024-01-30T05:50:54;32.28;;;11.10;;
78169;SDS011;67412;49.892;14.490;2024-01-30T05:53:20;38.95;;;12.30;;
78169;SDS011;67412;49.892;14.490;2024-01-30T05:55:45;37.28;;;12.00;;
78169;SDS011;67412;49.892;14.490;2024-01-30T05:58:11;35.38;;;11.43;;
78169;SDS011;67412;49.892;14.490;2024-01-30T06:00:36;40.05;;;12.98;;
78169;SDS011;67412;49.892;14.490;2024-01-30T06:03:01;33.55;;;11.98;;
78169;SDS011;67412;49.892;14.490;2024-01-30T06:05:27;32.95;;;11.20;;
78169;SDS011;67412;49.892;14.490;2024-01-30T06:07:52;40.15;;;12.18;;
78169;SDS011;67412;49.892;14.490;2024-01-30T06:10:18;30.35;;;11.27;;
78169;SDS011;67412;49.892;14.490;2024-01-30T06:12:44;32.65;;;11.25;;
78169;SDS011;67412;49.892;14.490;2024-01-30T06:15:09;35.35;;;11.63;;
78169;SDS011;67412;49.892;14.490;2024-01-30T06:17:35;32.35;;;11.38;;
78169;SDS011;67412;49.892;14.490;2024-01-30T06:20:00;32.92;;;12.95;;
78169;SDS011;67412;49.892;14.490;2024-01-30T06:22:25;32.65;;;11.25;;
78169;SDS011;67412;49.892;14.490;2024-01-30T06:24:51;25.15;;;9.52;;
78169;SDS011;67412;49.892;14.490;2024-01-30T06:27:16;30.85;;;11.40;;
78169;SDS011;67412;49.892;14.490;2024-01-30T06:29:42;40.65;;;12.40;;
78169;SDS011;67412;49.892;14.490;2024-01-30T06:32:08;27.58;;;10.60;;
78169;SDS011;67412;49.892;14.490;2024-01-30T06:34:33;31.98;;;10.00;;
78169;SDS011;67412;49.892;14.490;2024-01-30T06:36:59;30.60;;;11.90;;
78169;SDS011;67412;49.892;14.490;2024-01-30T06:39:24;32.20;;;11.35;;
78169;SDS011;67412;49.892;14.490;2024-01-30T06:41:50;28.58;;;10.50;;
78169;SDS011;67412;49.892;14.490;2024-01-30T06:44:16;31.55;;;12.60;;
78169;SDS011;67412;49.892;14.490;2024-01-30T06:46:41;35.65;;;12.85;;
78169;SDS011;67412;49.892;14.490;2024-01-30T06:49:07;38.20;;;12.68;;
78169;SDS011;67412;49.892;14.490;2024-01-30T06:51:32;38.83;;;13.85;;
78169;SDS011;67412;49.892;14.490;2024-01-30T06:53:57;33.90;;;13.60;;
78169;SDS011;67412;49.892;14.490;2024-01-30T06:56:23;36.72;;;13.15;;
78169;SDS011;67412;49.892;14.490;2024-01-30T06:58:48;36.58;;;12.88;;
78169;SDS011;67412;49.892;14.490;2024-01-30T07:01:14;28.65;;;12.07;;
78169;SDS011;67412;49.892;14.490;2024-01-30T07:03:40;34.55;;;11.52;;
78169;SDS011;67412;49.892;14.490;2024-01-30T07:06:05;34.92;;;11.65;;
78169;SDS011;67412;49.892;14.490;2024-01-30T07:08:30;29.38;;;11.07;;
78169;SDS011;67412;49.892;14.490;2024-01-30T07:10:56;35.00;;;12.50;;
78169;SDS011;67412;49.892;14.490;2024-01-30T07:13:21;27.75;;;10.48;;
78169;SDS011;67412;49.892;14.490;2024-01-30T07:15:47;32.83;;;13.00;;
78169;SDS011;67412;49.892;14.490;2024-01-30T07:18:12;31.00;;;11.50;;
78169;SDS011;67412;49.892;14.490;2024-01-30T07:20:38;36.10;;;13.68;;
78169;SDS011;67412;49.892;14.490;2024-01-30T07:23:10;30.88;;;11.68;;
78169;SDS011;67412;49.892;14.490;2024-01-30T07:25:38;33.42;;;12.70;;
78169;SDS011;67412;49.892;14.490;2024-01-30T07:28:06;32.65;;;12.70;;
78169;SDS011;67412;49.892;14.490;2024-01-30T07:30:32;35.13;;;13.23;;
78169;SDS011;67412;49.892;14.490;2024-01-30T07:32:57;36.45;;;13.88;;
78169;SDS011;67412;49.892;14.490;2024-01-30T07:35:22;36.97;;;15.43;;
78169;SDS011;67412;49.892;14.490;2024-01-30T07:37:48;39.28;;;14.50;;
78169;SDS011;67412;49.892;14.490;2024-01-30T07:40:13;40.55;;;15.07;;
78169;SDS011;67412;49.892;14.490;2024-01-30T07:42:39;39.17;;;14.73;;
78169;SDS011;67412;49.892;14.490;2024-01-30T07:45:04;39.25;;;14.13;;
78169;SDS011;67412;49.892;14.490;2024-01-30T07:47:30;39.97;;;15.02;;
78169;SDS011;67412;49.892;14.490;2024-01-30T07:49:55;38.80;;;13.88;;
78169;SDS011;67412;49.892;14.490;2024-01-30T07:52:20;34.33;;;14.95;;
78169;SDS011;67412;49.892;14.490;2024-01-30T07:58:07;30.90;;;12.30;;
78169;SDS011;67412;49.892;14.490;2024-01-30T08:00:32;37.08;;;15.20;;
78169;SDS011;67412;49.892;14.490;2024-01-30T08:02:58;35.45;;;12.55;;
78169;SDS011;67412;49.892;14.490;2024-01-30T08:05:23;38.28;;;13.80;;
78169;SDS011;67412;49.892;14.490;2024-01-30T08:07:49;31.38;;;12.07;;
78169;SDS011;67412;49.892;14.490;2024-01-30T08:10:15;40.72;;;14.55;;
78169;SDS011;67412;49.892;14.490;2024-01-30T08:12:41;33.05;;;13.00;;
78169;SDS011;67412;49.892;14.490;2024-01-30T08:15:06;33.88;;;13.93;;
78169;SDS011;67412;49.892;14.490;2024-01-30T08:17:32;33.45;;;13.20;;
78169;SDS011;67412;49.892;14.490;2024-01-30T08:19:58;31.48;;;13.30;;
78169;SDS011;67412;49.892;14.490;2024-01-30T08:22:24;39.05;;;15.60;;
78169;SDS011;67412;49.892;14.490;2024-01-30T08:24:49;42.10;;;15.75;;
78169;SDS011;67412;49.892;14.490;2024-01-30T08:27:14;35.70;;;14.07;;
78169;SDS011;67412;49.892;14.490;2024-01-30T08:29:40;33.30;;;12.63;;
78169;SDS011;67412;49.892;14.490;2024-01-30T08:32:05;26.90;;;10.98;;
78169;SDS011;67412;49.892;14.490;2024-01-30T08:34:31;40.83;;;14.35;;
78169;SDS011;67412;49.892;14.490;2024-01-30T08:36:57;38.17;;;13.57;;
78169;SDS011;67412;49.892;14.490;2024-01-30T08:39:22;32.00;;;13.05;;
78169;SDS011;67412;49.892;14.490;2024-01-30T08:41:47;37.70;;;13.15;;
78169;SDS011;67412;49.892;14.490;2024-01-30T08:44:13;34.28;;;13.40;;
78169;SDS011;67412;49.892;14.490;2024-01-30T08:46:38;30.52;;;13.40;;
78169;SDS011;67412;49.892;14.490;2024-01-30T08:49:03;27.58;;;11.43;;
78169;SDS011;67412;49.892;14.490;2024-01-30T08:51:32;29.08;;;11.48;;
78169;SDS011;67412;49.892;14.490;2024-01-30T08:53:58;30.30;;;11.23;;
78169;SDS011;67412;49.892;14.490;2024-01-30T08:56:24;31.50;;;13.00;;
78169;SDS011;67412;49.892;14.490;2024-01-30T08:58:49;29.20;;;12.23;;
78169;SDS011;67412;49.892;14.490;2024-01-30T09:01:15;31.92;;;13.23;;
78169;SDS011;67412;49.892;14.490;2024-01-30T09:03:40;30.98;;;12.60;;
78169;SDS011;67412;49.892;14.490;2024-01-30T09:06:10;35.47;;;12.35;;
78169;SDS011;67412;49.892;14.490;2024-01-30T09:08:36;26.17;;;11.15;;
78169;SDS011;67412;49.892;14.490;2024-01-30T09:11:08;27.98;;;11.73;;
78169;SDS011;67412;49.892;14.490;2024-01-30T09:13:37;26.52;;;10.32;;
78169;SDS011;67412;49.892;14.490;2024-01-30T09:16:03;29.75;;;11.93;;
78169;SDS011;67412;49.892;14.490;2024-01-30T09:18:28;30.92;;;10.98;;
78169;SDS011;67412;49.892;14.490;2024-01-30T09:20:54;29.23;;;10.43;;
78169;SDS011;67412;49.892;14.490;2024-01-30T09:23:19;26.15;;;10.10;;
78169;SDS011;67412;49.892;14.490;2024-01-30T09:25:44;26.27;;;10.38;;
78169;SDS011;67412;49.892;14.490;2024-01-30T09:28:10;32.88;;;10.32;;
78169;SDS011;67412;49.892;14.490;2024-01-30T09:30:35;24.88;;;10.18;;
78169;SDS011;67412;49.892;14.490;2024-01-30T09:33:01;26.58;;;11.88;;
78169;SDS011;67412;49.892;14.490;2024-01-30T09:35:26;34.67;;;12.45;;
78169;SDS011;67412;49.892;14.490;2024-01-30T09:37:51;29.45;;;12.15;;
78169;SDS011;67412;49.892;14.490;2024-01-30T09:40:17;27.52;;;11.52;;
78169;SDS011;67412;49.892;14.490;2024-01-30T09:42:45;27.50;;;10.10;;
78169;SDS011;67412;49.892;14.490;2024-01-30T09:45:15;29.35;;;11.02;;
78169;SDS011;67412;49.892;14.490;2024-01-30T09:47:43;23.83;;;9.05;;
78169;SDS011;67412;49.892;14.490;2024-01-30T09:50:10;23.95;;;9.00;;
78169;SDS011;67412;49.892;14.490;2024-01-30T09:52:44;25.17;;;8.70;;
78169;SDS011;67412;49.892;14.490;2024-01-30T09:55:10;23.58;;;9.00;;
78169;SDS011;67412;49.892;14.490;2024-01-30T09:57:35;29.33;;;9.77;;
78169;SDS011;67412;49.892;14.490;2024-01-30T10:00:02;31.73;;;10.13;;
78169;SDS011;67412;49.892;14.490;2024-01-30T10:04:54;26.95;;;9.65;;
78169;SDS011;67412;49.892;14.490;2024-01-30T10:07:20;28.80;;;10.05;;
78169;SDS011;67412;49.892;14.490;2024-01-30T10:09:46;30.75;;;11.02;;
78169;SDS011;67412;49.892;14.490;2024-01-30T10:12:12;26.45;;;10.15;;
78169;SDS011;67412;49.892;14.490;2024-01-30T10:14:41;23.35;;;8.68;;
78169;SDS011;67412;49.892;14.490;2024-01-30T10:17:08;26.98;;;9.82;;
78169;SDS011;67412;49.892;14.490;2024-01-30T10:19:34;27.15;;;9.90;;
78169;SDS011;67412;49.892;14.490;2024-01-30T10:22:00;30.08;;;10.73;;
78169;SDS011;67412;49.892;14.490;2024-01-30T10:24:26;31.15;;;12.20;;
78169;SDS011;67412;49.892;14.490;2024-01-30T10:26:53;26.83;;;11.27;;
78169;SDS011;67412;49.892;14.490;2024-01-30T10:29:18;31.98;;;12.13;;
78169;SDS011;67412;49.892;14.490;2024-01-30T10:31:44;29.08;;;11.07;;
78169;SDS011;67412;49.892;14.490;2024-01-30T10:34:09;32.58;;;12.55;;
78169;SDS011;67412;49.892;14.490;2024-01-30T10:36:37;28.80;;;12.18;;
78169;SDS011;67412;49.892;14.490;2024-01-30T10:39:08;33.40;;;12.27;;
78169;SDS011;67412;49.892;14.490;2024-01-30T10:41:37;27.38;;;11.30;;
78169;SDS011;67412;49.892;14.490;2024-01-30T10:44:15;30.05;;;12.00;;
78169;SDS011;67412;49.892;14.490;2024-01-30T10:46:46;34.47;;;12.48;;
78169;SDS011;67412;49.892;14.490;2024-01-30T10:49:16;30.25;;;11.60;;
78169;SDS011;67412;49.892;14.490;2024-01-30T10:51:41;26.67;;;10.10;;
78169;SDS011;67412;49.892;14.490;2024-01-30T10:54:07;28.45;;;10.80;;
78169;SDS011;67412;49.892;14.490;2024-01-30T10:56:34;29.85;;;11.43;;
78169;SDS011;67412;49.892;14.490;2024-01-30T10:59:00;30.33;;;11.05;;
78169;SDS011;67412;49.892;14.490;2024-01-30T11:01:26;31.33;;;11.35;;
78169;SDS011;67412;49.892;14.490;2024-01-30T11:03:53;29.55;;;10.75;;
78169;SDS011;67412;49.892;14.490;2024-01-30T11:06:27;28.25;;;10.82;;
78169;SDS011;67412;49.892;14.490;2024-01-30T11:09:02;26.08;;;10.18;;
78169;SDS011;67412;49.892;14.490;2024-01-30T11:11:29;29.13;;;10.32;;
78169;SDS011;67412;49.892;14.490;2024-01-30T11:13:54;28.13;;;9.35;;
78169;SDS011;67412;49.892;14.490;2024-01-30T11:16:19;22.52;;;9.60;;
78169;SDS011;67412;49.892;14.490;2024-01-30T11:18:49;26.13;;;9.88;;
78169;SDS011;67412;49.892;14.490;2024-01-30T11:21:15;25.48;;;9.93;;
78169;SDS011;67412;49.892;14.490;2024-01-30T11:23:41;21.40;;;8.18;;
78169;SDS011;67412;49.892;14.490;2024-01-30T11:26:07;23.30;;;8.23;;
78169;SDS011;67412;49.892;14.490;2024-01-30T11:28:35;24.50;;;9.82;;
78169;SDS011;67412;49.892;14.490;2024-01-30T11:33:29;23.63;;;9.30;;
78169;SDS011;67412;49.892;14.490;2024-01-30T11:35:58;29.23;;;9.82;;
78169;SDS011;67412;49.892;14.490;2024-01-30T11:38:25;24.63;;;8.60;;
78169;SDS011;67412;49.892;14.490;2024-01-30T11:40:52;28.95;;;9.75;;
78169;SDS011;67412;49.892;14.490;2024-01-30T11:43:18;25.25;;;8.60;;
78169;SDS011;67412;49.892;14.490;2024-01-30T11:45:44;23.95;;;9.02;;
78169;SDS011;67412;49.892;14.490;2024-01-30T11:48:11;26.38;;;9.48;;
78169;SDS011;67412;49.892;14.490;2024-01-30T11:50:37;27.48;;;9.52;;
78169;SDS011;67412;49.892;14.490;2024-01-30T11:53:03;24.05;;;9.75;;
78169;SDS011;67412;49.892;14.490;2024-01-30T11:55:29;24.05;;;9.85;;
78169;SDS011;67412;49.892;14.490;2024-01-30T11:57:56;23.63;;;9.18;;
78169;SDS011;67412;49.892;14.490;2024-01-30T12:00:22;25.08;;;9.68;;
78169;SDS011;67412;49.892;14.490;2024-01-30T12:02:51;27.95;;;10.20;;
78169;SDS011;67412;49.892;14.490;2024-01-30T12:05:21;23.63;;;9.88;;
78169;SDS011;67412;49.892;14.490;2024-01-30T12:07:47;24.98;;;9.95;;
78169;SDS011;67412;49.892;14.490;2024-01-30T12:10:13;22.50;;;9.45;;
78169;SDS011;67412;49.892;14.490;2024-01-30T12:12:45;22.83;;;10.07;;
78169;SDS011;67412;49.892;14.490;2024-01-30T12:15:11;25.90;;;8.98;;
78169;SDS011;67412;49.892;14.490;2024-01-30T12:17:37;22.25;;;8.43;;
78169;SDS011;67412;49.892;14.490;2024-01-30T12:20:04;21.35;;;8.60;;
78169;SDS011;67412;49.892;14.490;2024-01-30T12:22:31;26.33;;;9.02;;
78169;SDS011;67412;49.892;14.490;2024-01-30T12:24:58;20.92;;;9.13;;
78169;SDS011;67412;49.892;14.490;2024-01-30T12:27:23;25.08;;;8.82;;
78169;SDS011;67412;49.892;14.490;2024-01-30T12:29:54;23.67;;;9.45;;
78169;SDS011;67412;49.892;14.490;2024-01-30T12:32:22;25.67;;;9.57;;
78169;SDS011;67412;49.892;14.490;2024-01-30T12:37:13;22.48;;;7.88;;
78169;SDS011;67412;49.892;14.490;2024-01-30T12:39:38;20.92;;;8.38;;
78169;SDS011;67412;49.892;14.490;2024-01-30T12:42:04;19.83;;;8.27;;
78169;SDS011;67412;49.892;14.490;2024-01-30T12:44:29;22.85;;;7.53;;
78169;SDS011;67412;49.892;14.490;2024-01-30T12:46:55;22.58;;;8.80;;
78169;SDS011;67412;49.892;14.490;2024-01-30T12:49:20;26.20;;;9.23;;
78169;SDS011;67412;49.892;14.490;2024-01-30T12:51:46;21.75;;;8.20;;
78169;SDS011;67412;49.892;14.490;2024-01-30T12:54:12;23.92;;;9.00;;
78169;SDS011;67412;49.892;14.490;2024-01-30T12:56:38;24.50;;;8.40;;
78169;SDS011;67412;49.892;14.490;2024-01-30T12:59:03;22.67;;;8.30;;
78169;SDS011;67412;49.892;14.490;2024-01-30T13:01:28;26.10;;;9.27;;
78169;SDS011;67412;49.892;14.490;2024-01-30T13:03:54;20.95;;;8.43;;
78169;SDS011;67412;49.892;14.490;2024-01-30T13:06:22;20.70;;;7.97;;
78169;SDS011;67412;49.892;14.490;2024-01-30T13:08:47;22.35;;;8.77;;
78169;SDS011;67412;49.892;14.490;2024-01-30T13:11:13;21.73;;;8.05;;
78169;SDS011;67412;49.892;14.490;2024-01-30T13:13:38;22.77;;;8.80;;
78169;SDS011;67412;49.892;14.490;2024-01-30T13:16:03;20.95;;;8.80;;
78169;SDS011;67412;49.892;14.490;2024-01-30T13:18:29;20.17;;;8.25;;
78169;SDS011;67412;49.892;14.490;2024-01-30T13:20:54;23.05;;;8.57;;
78169;SDS011;67412;49.892;14.490;2024-01-30T13:23:20;21.25;;;8.52;;
78169;SDS011;67412;49.892;14.490;2024-01-30T13:25:45;23.92;;;8.02;;
78169;SDS011;67412;49.892;14.490;2024-01-30T13:28:10;19.00;;;7.30;;
78169;SDS011;67412;49.892;14.490;2024-01-30T13:30:36;23.58;;;8.00;;
78169;SDS011;67412;49.892;14.490;2024-01-30T13:33:01;21.60;;;7.38;;
78169;SDS011;67412;49.892;14.490;2024-01-30T13:35:28;18.90;;;7.38;;
78169;SDS011;67412;49.892;14.490;2024-01-30T13:37:53;21.75;;;8.00;;
78169;SDS011;67412;49.892;14.490;2024-01-30T13:40:19;23.58;;;8.18;;
78169;SDS011;67412;49.892;14.490;2024-01-30T13:42:44;23.27;;;8.25;;
78169;SDS011;67412;49.892;14.490;2024-01-30T13:45:09;21.23;;;7.75;;
78169;SDS011;67412;49.892;14.490;2024-01-30T13:47:35;21.75;;;7.78;;
78169;SDS011;67412;49.892;14.490;2024-01-30T13:50:00;21.85;;;8.15;;
78169;SDS011;67412;49.892;14.490;2024-01-30T13:52:25;19.98;;;7.90;;
78169;SDS011;67412;49.892;14.490;2024-01-30T13:54:52;18.52;;;7.07;;
78169;SDS011;67412;49.892;14.490;2024-01-30T13:57:17;18.90;;;7.97;;
78169;SDS011;67412;49.892;14.490;2024-01-30T13:59:42;22.77;;;8.73;;
78169;SDS011;67412;49.892;14.490;2024-01-30T14:02:08;20.63;;;8.05;;
78169;SDS011;67412;49.892;14.490;2024-01-30T14:04:35;20.52;;;7.18;;
78169;SDS011;67412;49.892;14.490;2024-01-30T14:07:02;21.98;;;8.23;;
78169;SDS011;67412;49.892;14.490;2024-01-30T14:09:28;19.10;;;7.57;;
78169;SDS011;67412;49.892;14.490;2024-01-30T14:11:53;22.35;;;8.90;;
78169;SDS011;67412;49.892;14.490;2024-01-30T14:14:19;18.35;;;8.15;;
78169;SDS011;67412;49.892;14.490;2024-01-30T14:16:44;20.88;;;9.05;;
78169;SDS011;67412;49.892;14.490;2024-01-30T14:19:10;22.38;;;8.23;;
78169;SDS011;67412;49.892;14.490;2024-01-30T14:21:35;21.05;;;8.80;;